createdAt,value
2024-01-03T00:01:09.498Z,99.90
2024-01-03T00:03:38.185Z,99.90
2024-01-03T00:06:07.323Z,99.90
2024-01-03T00:08:36.169Z,99.90
2024-01-03T00:11:04.927Z,99.90
2024-01-03T00:13:39.649Z,99.90
2024-01-03T00:16:23.246Z,99.90
2024-01-03T00:19:00.811Z,99.90
2024-01-03T00:21:31.511Z,99.90
2024-01-03T00:24:12.496Z,99.90
2024-01-03T00:26:42.736Z,99.90
2024-01-03T00:29:26.369Z,1.00
2024-01-03T00:31:55.452Z,1.00
2024-01-03T00:34:24.504Z,99.90
2024-01-03T00:36:55.262Z,99.90
2024-01-03T00:39:27.727Z,99.90
2024-01-03T00:41:56.644Z,99.90
2024-01-03T00:44:25.541Z,99.90
2024-01-03T00:46:55.746Z,99.90
2024-01-03T00:49:25.114Z,1.00
2024-01-03T00:51:54.497Z,99.90
2024-01-03T00:54:24.341Z,99.90
2024-01-03T00:56:54.172Z,99.90
2024-01-03T00:59:23.200Z,99.90
2024-01-03T01:01:51.969Z,99.90
2024-01-03T01:04:20.720Z,99.90
2024-01-03T01:06:49.357Z,99.90
2024-01-03T01:09:17.771Z,99.90
2024-01-03T01:11:46.113Z,99.90
2024-01-03T01:14:14.747Z,99.90
2024-01-03T01:16:43.882Z,99.90
2024-01-03T01:19:12.453Z,99.90
2024-01-03T01:21:44.208Z,99.90
2024-01-03T01:24:12.827Z,99.90
2024-01-03T01:26:41.638Z,99.90
2024-01-03T01:29:11.438Z,99.90
2024-01-03T01:31:40.073Z,99.90
2024-01-03T01:34:08.529Z,99.90
2024-01-03T01:36:37.345Z,99.90
2024-01-03T01:39:05.716Z,99.90
2024-01-03T01:41:34.131Z,99.90
2024-01-03T01:44:02.554Z,1.00
2024-01-03T01:46:31.138Z,1.00
2024-01-03T01:49:00.394Z,1.00
2024-01-03T01:51:29.241Z,1.00
2024-01-03T01:53:57.955Z,1.00
2024-01-03T01:56:27.634Z,1.00
2024-01-03T01:58:56.212Z,18.60
2024-01-03T02:01:25.152Z,1.00
2024-01-03T02:03:55.019Z,1.00
2024-01-03T02:06:23.959Z,1.00
2024-01-03T02:08:52.502Z,1.00
2024-01-03T02:11:20.964Z,1.00
2024-01-03T02:13:52.394Z,1.00
2024-01-03T02:16:20.878Z,1.00
2024-01-03T02:18:49.624Z,1.00
2024-01-03T02:21:18.849Z,1.00
2024-01-03T02:23:47.452Z,1.00
2024-01-03T02:26:25.741Z,1.00
2024-01-03T02:28:58.308Z,1.00
2024-01-03T02:31:27.391Z,1.00
2024-01-03T02:33:55.944Z,1.00
2024-01-03T02:36:27.993Z,1.00
2024-01-03T02:38:59.555Z,99.90
2024-01-03T02:41:28.490Z,99.90
2024-01-03T02:43:56.795Z,99.90
2024-01-03T02:46:25.286Z,99.90
2024-01-03T02:48:53.932Z,99.90
2024-01-03T02:51:23.726Z,99.90
2024-01-03T02:53:52.660Z,96.80
2024-01-03T02:56:21.163Z,99.90
2024-01-03T02:58:56.385Z,90.20
2024-01-03T03:01:26.291Z,99.90
2024-01-03T03:03:55.082Z,99.90
2024-01-03T03:06:25.531Z,1.00
2024-01-03T03:09:08.967Z,1.00
2024-01-03T03:11:44.767Z,28.40
2024-01-03T03:14:13.029Z,99.90
2024-01-03T03:16:41.309Z,99.90
2024-01-03T03:19:09.932Z,99.90
2024-01-03T03:21:38.269Z,99.90
2024-01-03T03:24:07.075Z,99.90
2024-01-03T03:26:35.582Z,99.90
2024-01-03T03:29:03.791Z,99.90
2024-01-03T03:31:32.178Z,1.00
2024-01-03T03:34:00.695Z,1.00
2024-01-03T03:36:29.219Z,99.90
2024-01-03T03:38:57.996Z,1.00
2024-01-03T03:41:26.694Z,99.90
2024-01-03T03:43:55.146Z,99.90
2024-01-03T03:46:23.453Z,99.90
2024-01-03T03:48:52.456Z,1.00
2024-01-03T03:51:20.832Z,99.90
2024-01-03T03:53:49.223Z,75.60
2024-01-03T03:56:28.123Z,1.00
2024-01-03T03:58:56.801Z,99.90
2024-01-03T04:01:25.428Z,99.90
2024-01-03T04:03:55.413Z,99.90
2024-01-03T04:06:23.883Z,99.90
2024-01-03T04:08:52.382Z,99.90
2024-01-03T04:11:20.762Z,99.90
2024-01-03T04:13:49.313Z,99.90
2024-01-03T04:16:18.175Z,99.50
2024-01-03T04:18:46.630Z,88.00
2024-01-03T04:21:15.475Z,99.90
2024-01-03T04:23:43.782Z,99.90
2024-01-03T04:26:12.613Z,99.90
2024-01-03T04:28:41.057Z,99.90
2024-01-03T04:31:09.271Z,99.90
2024-01-03T04:33:38.003Z,99.90
2024-01-03T04:36:07.225Z,1.00
2024-01-03T04:38:35.930Z,99.90
2024-01-03T04:41:07.402Z,1.00
2024-01-03T04:43:37.425Z,53.40
2024-01-03T04:46:05.682Z,99.90
2024-01-03T04:48:34.180Z,1.00
2024-01-03T04:51:02.908Z,1.00
2024-01-03T04:53:31.156Z,99.90
2024-01-03T04:55:59.608Z,99.90
2024-01-03T04:58:28.053Z,99.90
2024-01-03T05:00:56.332Z,99.90
2024-01-03T05:03:24.889Z,99.90
2024-01-03T05:05:53.510Z,99.90
2024-01-03T05:08:21.953Z,99.90
2024-01-03T05:10:50.245Z,99.90
2024-01-03T05:13:18.580Z,1.00
2024-01-03T05:15:46.905Z,1.00
2024-01-03T05:18:15.706Z,1.00
2024-01-03T05:20:44.559Z,64.70
2024-01-03T05:23:12.790Z,99.90
2024-01-03T05:25:41.170Z,1.00
2024-01-03T05:28:09.844Z,21.20
2024-01-03T05:30:38.282Z,1.00
2024-01-03T05:33:06.956Z,44.70
2024-01-03T05:35:35.594Z,99.90
2024-01-03T05:38:03.917Z,99.90
2024-01-03T05:40:32.420Z,99.90
2024-01-03T05:43:00.903Z,1.00
2024-01-03T05:45:29.312Z,1.00
2024-01-03T05:48:02.840Z,99.90
2024-01-03T05:50:33.462Z,99.90
2024-01-03T05:53:05.805Z,99.90
2024-01-03T05:55:35.702Z,99.90
2024-01-03T05:58:04.073Z,99.90
2024-01-03T06:00:32.321Z,99.90
2024-01-03T06:03:00.796Z,1.00
2024-01-03T06:05:29.210Z,99.90
2024-01-03T06:07:57.803Z,99.90
2024-01-03T06:10:29.094Z,99.90
2024-01-03T06:13:02.025Z,1.00
2024-01-03T06:15:31.957Z,1.00
2024-01-03T06:18:00.530Z,99.00
2024-01-03T06:20:29.250Z,99.90
2024-01-03T06:22:57.708Z,99.90
2024-01-03T06:25:26.031Z,1.00
2024-01-03T06:27:54.615Z,1.00
2024-01-03T06:30:23.522Z,1.00
2024-01-03T06:32:51.938Z,1.00
2024-01-03T06:35:20.271Z,99.90
2024-01-03T06:37:48.793Z,1.00
2024-01-03T06:40:17.142Z,1.00
2024-01-03T06:42:45.628Z,19.00
2024-01-03T06:45:14.016Z,99.90
2024-01-03T06:47:43.335Z,99.90
2024-01-03T06:50:12.544Z,1.00
2024-01-03T06:52:41.101Z,1.00
2024-01-03T06:55:10.826Z,16.60
2024-01-03T06:57:39.124Z,46.90
2024-01-03T07:00:08.108Z,58.90
2024-01-03T07:02:36.564Z,99.90
2024-01-03T07:05:05.163Z,99.90
2024-01-03T07:07:34.198Z,99.90
2024-01-03T07:10:02.971Z,99.90
2024-01-03T07:12:31.166Z,17.70
2024-01-03T07:14:59.523Z,99.90
2024-01-03T07:17:28.003Z,99.90
2024-01-03T07:19:56.330Z,99.90
2024-01-03T07:22:25.161Z,99.90
2024-01-03T07:24:53.454Z,29.20
2024-01-03T07:27:21.881Z,99.90
2024-01-03T07:29:50.312Z,10.20
2024-01-03T07:32:18.623Z,1.00
2024-01-03T07:34:47.129Z,99.90
2024-01-03T07:37:15.549Z,91.60
2024-01-03T07:39:43.971Z,1.00
2024-01-03T07:42:12.287Z,99.90
2024-01-03T07:44:40.926Z,99.90
2024-01-03T07:47:10.295Z,1.00
2024-01-03T07:49:39.560Z,99.90
2024-01-03T07:54:47.757Z,99.90
2024-01-03T07:57:16.182Z,99.90
2024-01-03T07:59:44.459Z,99.90
2024-01-03T08:02:13.861Z,82.20
2024-01-03T08:04:42.186Z,1.00
2024-01-03T08:07:10.717Z,1.00
2024-01-03T08:09:39.127Z,99.90
2024-01-03T08:12:08.682Z,99.90
2024-01-03T08:14:37.742Z,47.10
2024-01-03T08:17:06.538Z,1.00
2024-01-03T08:19:35.104Z,99.90
2024-01-03T08:22:03.697Z,99.90
2024-01-03T08:24:33.761Z,99.90
2024-01-03T08:27:02.395Z,99.90
2024-01-03T08:29:30.709Z,99.90
2024-01-03T08:31:59.404Z,99.90
2024-01-03T08:34:27.758Z,99.90
2024-01-03T08:36:56.118Z,99.90
2024-01-03T08:39:24.558Z,99.90
2024-01-03T08:41:53.043Z,99.90
2024-01-03T08:44:24.627Z,99.90
2024-01-03T08:46:53.079Z,99.90
2024-01-03T08:49:21.650Z,99.90
2024-01-03T08:51:50.105Z,99.90
2024-01-03T08:54:18.704Z,99.90
2024-01-03T08:56:51.027Z,99.90
2024-01-03T08:59:19.399Z,99.90
2024-01-03T09:01:52.966Z,99.90
2024-01-03T09:04:21.559Z,99.90
2024-01-03T09:06:51.007Z,1.00
2024-01-03T09:09:19.583Z,1.00
2024-01-03T09:11:47.825Z,26.10
2024-01-03T09:14:16.326Z,72.50
2024-01-03T09:16:44.615Z,99.90
2024-01-03T09:19:13.052Z,99.90
2024-01-03T09:21:48.056Z,1.00
2024-01-03T09:24:17.011Z,1.00
2024-01-03T09:26:45.508Z,1.00
2024-01-03T09:29:14.378Z,1.00
2024-01-03T09:31:43.826Z,1.00
2024-01-03T09:34:12.999Z,1.00
2024-01-03T09:36:41.636Z,99.90
2024-01-03T09:39:10.277Z,99.90
2024-01-03T09:41:40.182Z,98.70
2024-01-03T09:44:09.185Z,1.00
2024-01-03T09:46:37.627Z,1.00
2024-01-03T09:49:06.282Z,1.00
2024-01-03T09:51:35.698Z,1.00
2024-01-03T09:54:05.558Z,1.00
2024-01-03T09:56:33.992Z,1.00
2024-01-03T09:59:02.504Z,1.00
2024-01-03T10:01:30.677Z,99.90
2024-01-03T10:03:59.283Z,99.90
2024-01-03T10:06:27.840Z,99.90
2024-01-03T10:09:04.801Z,99.90
2024-01-03T10:11:33.665Z,99.90
2024-01-03T10:14:19.202Z,99.90
2024-01-03T10:16:48.185Z,99.90
2024-01-03T10:19:19.725Z,99.90
2024-01-03T10:21:52.378Z,99.90
2024-01-03T10:24:22.527Z,99.90
2024-01-03T10:26:51.031Z,99.90
2024-01-03T10:29:21.747Z,99.90
2024-01-03T10:31:51.967Z,99.90
2024-01-03T10:34:26.485Z,99.90
2024-01-03T10:36:56.189Z,99.90
2024-01-03T10:39:24.863Z,99.90
2024-01-03T10:41:55.363Z,99.90
2024-01-03T10:44:23.890Z,99.90
2024-01-03T10:46:53.067Z,99.90
2024-01-03T10:49:21.752Z,99.90
2024-01-03T10:51:58.757Z,99.90
2024-01-03T10:54:33.459Z,99.90
2024-01-03T10:57:01.946Z,99.90
2024-01-03T10:59:38.215Z,99.90
2024-01-03T11:02:16.759Z,99.90
2024-01-03T11:04:50.642Z,99.90
2024-01-03T11:07:36.710Z,99.90
2024-01-03T11:10:05.490Z,99.90
2024-01-03T11:12:33.752Z,99.90
2024-01-03T11:15:37.812Z,99.90
2024-01-03T11:18:35.623Z,99.90
2024-01-03T11:21:25.470Z,99.90
2024-01-03T11:23:54.900Z,99.90
2024-01-03T11:26:55.157Z,99.90
2024-01-03T11:29:39.425Z,99.90
2024-01-03T11:32:09.639Z,99.90
2024-01-03T11:34:38.610Z,99.90
2024-01-03T11:37:18.943Z,1.00
2024-01-03T11:39:49.736Z,99.90
2024-01-03T11:42:38.380Z,99.90
2024-01-03T11:45:16.880Z,99.90
2024-01-03T11:47:46.823Z,99.90
2024-01-03T11:50:17.621Z,99.90
2024-01-03T11:52:48.218Z,99.90
2024-01-03T11:55:20.419Z,99.90
2024-01-03T11:57:51.092Z,99.90
2024-01-03T12:00:21.733Z,99.90
2024-01-03T12:02:59.503Z,99.90
2024-01-03T12:05:29.441Z,99.90
2024-01-03T12:07:59.403Z,99.90
2024-01-03T12:10:28.177Z,99.90
2024-01-03T12:12:56.632Z,99.90
2024-01-03T12:18:08.224Z,99.90
2024-01-03T12:20:36.832Z,99.90
2024-01-03T12:23:10.054Z,99.90
2024-01-03T12:25:38.752Z,99.90
2024-01-03T12:28:07.331Z,99.90
2024-01-03T12:30:36.007Z,99.90
2024-01-03T12:33:09.948Z,99.90
2024-01-03T12:35:38.962Z,99.90
2024-01-03T12:38:07.783Z,99.90
2024-01-03T12:40:36.412Z,99.90
2024-01-03T12:43:04.891Z,99.90
2024-01-03T12:45:33.172Z,99.90
2024-01-03T12:48:01.821Z,99.90
2024-01-03T12:50:30.283Z,99.90
2024-01-03T12:52:58.797Z,99.90
2024-01-03T12:55:27.217Z,99.90
2024-01-03T12:57:55.743Z,99.90
2024-01-03T13:00:24.316Z,99.90
2024-01-03T13:02:54.412Z,99.90
2024-01-03T13:05:23.110Z,99.90
2024-01-03T13:07:51.879Z,99.90
2024-01-03T13:10:20.141Z,99.90
2024-01-03T13:12:49.569Z,99.90
2024-01-03T13:15:18.079Z,99.90
2024-01-03T13:17:46.730Z,99.90
2024-01-03T13:20:15.370Z,99.90
2024-01-03T13:22:43.928Z,99.90
2024-01-03T13:25:12.778Z,99.90
2024-01-03T13:27:43.096Z,99.90
2024-01-03T13:30:13.924Z,99.90
2024-01-03T13:32:42.347Z,99.90
2024-01-03T13:35:10.819Z,99.90
2024-01-03T13:37:39.381Z,99.90
2024-01-03T13:40:08.434Z,99.90
2024-01-03T13:42:36.983Z,99.90
2024-01-03T13:45:05.868Z,99.90
2024-01-03T13:47:34.431Z,99.90
2024-01-03T13:50:02.985Z,99.90
2024-01-03T13:52:31.801Z,99.90
2024-01-03T13:55:00.287Z,99.90
2024-01-03T13:57:28.642Z,99.90
2024-01-03T13:59:57.349Z,99.90
2024-01-03T14:02:25.586Z,99.90
2024-01-03T14:04:53.917Z,99.90
2024-01-03T14:07:22.462Z,99.90
2024-01-03T14:09:50.733Z,99.90
2024-01-03T14:12:19.172Z,99.90
2024-01-03T14:14:47.598Z,99.90
2024-01-03T14:17:15.845Z,99.90
2024-01-03T14:19:44.418Z,99.90
2024-01-03T14:22:13.539Z,99.90
2024-01-03T14:24:41.946Z,99.90
2024-01-03T14:27:10.455Z,99.90
2024-01-03T14:29:39.215Z,99.90
2024-01-03T14:32:13.397Z,99.90
2024-01-03T14:34:42.793Z,99.90
2024-01-03T14:37:11.997Z,99.90
2024-01-03T14:39:41.578Z,99.90
2024-01-03T14:42:11.380Z,99.90
2024-01-03T14:44:39.884Z,99.90
2024-01-03T14:47:08.181Z,99.90
2024-01-03T14:49:36.713Z,99.90
2024-01-03T14:52:06.208Z,99.90
2024-01-03T14:54:36.328Z,99.90
2024-01-03T14:57:05.643Z,99.90
2024-01-03T14:59:33.939Z,99.90
2024-01-03T15:02:02.537Z,99.90
2024-01-03T15:04:30.955Z,99.90
2024-01-03T15:07:00.465Z,99.90
2024-01-03T15:09:29.051Z,99.90
2024-01-03T15:11:57.399Z,99.90
2024-01-03T15:14:26.256Z,99.90
2024-01-03T15:16:54.699Z,99.90
2024-01-03T15:19:23.420Z,99.90
2024-01-03T15:22:20.984Z,99.90
2024-01-03T15:24:49.445Z,99.90
2024-01-03T15:27:17.804Z,99.90
2024-01-03T15:29:46.060Z,99.90
2024-01-03T15:32:14.488Z,99.90
2024-01-03T15:34:43.172Z,99.90
2024-01-03T15:37:12.336Z,99.90
2024-01-03T15:39:41.064Z,99.90
2024-01-03T15:42:09.469Z,99.90
2024-01-03T15:44:38.603Z,99.90
2024-01-03T15:47:07.471Z,99.90
2024-01-03T15:49:36.310Z,99.90
2024-01-03T15:52:06.763Z,99.90
2024-01-03T15:54:45.680Z,99.90
2024-01-03T15:57:17.511Z,99.90
2024-01-03T15:59:46.517Z,99.90
2024-01-03T16:02:15.104Z,99.90
2024-01-03T16:04:43.563Z,99.90
2024-01-03T16:07:12.363Z,99.90
2024-01-03T16:09:40.844Z,99.90
2024-01-03T16:12:09.806Z,99.90
2024-01-03T16:14:38.665Z,99.90
2024-01-03T16:17:07.496Z,99.90
2024-01-03T16:19:36.071Z,99.90
2024-01-03T16:22:04.735Z,99.90
2024-01-03T16:24:33.302Z,99.90
2024-01-03T16:27:01.693Z,99.90
2024-01-03T16:29:30.173Z,99.90
2024-01-03T16:32:00.045Z,99.90
2024-01-03T16:34:28.556Z,99.90
2024-01-03T16:36:58.718Z,99.90
2024-01-03T16:39:27.063Z,99.90
2024-01-03T16:41:55.940Z,99.90
2024-01-03T16:44:24.914Z,99.90
2024-01-03T16:46:54.340Z,99.90
2024-01-03T16:49:24.064Z,99.90
2024-01-03T16:51:52.603Z,99.90
2024-01-03T16:54:21.283Z,99.90
2024-01-03T16:56:49.824Z,99.90
2024-01-03T16:59:18.967Z,99.90
2024-01-03T17:01:47.766Z,99.90
2024-01-03T17:04:17.465Z,99.90
2024-01-03T17:06:47.333Z,99.90
2024-01-03T17:09:17.593Z,99.90
2024-01-03T17:11:46.591Z,99.90
2024-01-03T17:14:15.022Z,99.90
2024-01-03T17:16:43.493Z,99.90
2024-01-03T17:19:12.261Z,99.90
2024-01-03T17:21:41.360Z,99.90
2024-01-03T17:24:10.173Z,99.90
2024-01-03T17:26:39.215Z,99.90
2024-01-03T17:29:08.288Z,99.90
2024-01-03T17:31:37.519Z,99.90
2024-01-03T17:34:07.778Z,99.90
2024-01-03T17:36:36.487Z,99.90
2024-01-03T17:39:04.991Z,99.90
2024-01-03T17:41:33.335Z,99.90
2024-01-03T17:44:01.705Z,99.90
2024-01-03T17:46:29.982Z,99.90
2024-01-03T17:48:58.525Z,99.90
2024-01-03T17:51:27.113Z,99.90
2024-01-03T17:53:55.548Z,99.90
2024-01-03T17:56:25.085Z,99.90
2024-01-03T17:58:54.084Z,99.90
2024-01-03T18:01:22.479Z,99.90
2024-01-03T18:03:51.064Z,99.90
2024-01-03T18:06:19.511Z,99.90
2024-01-03T18:08:47.872Z,99.90
2024-01-03T18:11:16.378Z,99.90
2024-01-03T18:13:44.706Z,99.90
2024-01-03T18:16:13.095Z,99.90
2024-01-03T18:18:41.730Z,99.90
2024-01-03T18:21:10.345Z,99.90
2024-01-03T18:23:39.017Z,99.90
2024-01-03T18:26:07.515Z,99.90
2024-01-03T18:28:35.818Z,99.90
2024-01-03T18:31:04.198Z,99.90
2024-01-03T18:33:36.364Z,99.90
2024-01-03T18:36:04.924Z,99.90
2024-01-03T18:38:33.860Z,99.90
2024-01-03T18:41:02.151Z,99.90
2024-01-03T18:43:30.444Z,99.90
2024-01-03T18:45:59.038Z,99.90
2024-01-03T18:48:27.357Z,99.90
2024-01-03T18:50:56.026Z,99.90
2024-01-03T18:53:24.742Z,99.90
2024-01-03T18:55:53.011Z,99.90
2024-01-03T18:58:21.994Z,99.90
2024-01-03T19:00:50.460Z,99.90
2024-01-03T19:03:19.056Z,99.90
2024-01-03T19:05:47.640Z,99.90
2024-01-03T19:08:16.782Z,99.90
2024-01-03T19:10:45.155Z,99.90
2024-01-03T19:13:13.886Z,99.90
2024-01-03T19:15:42.520Z,99.90
2024-01-03T19:18:11.167Z,99.90
2024-01-03T19:20:40.774Z,99.90
2024-01-03T19:23:10.605Z,99.90
2024-01-03T19:30:05.988Z,99.90
2024-01-03T19:32:38.363Z,99.90
2024-01-03T19:35:11.782Z,1.00
2024-01-03T19:37:44.462Z,99.90
2024-01-03T19:40:15.577Z,99.90
2024-01-03T19:42:44.006Z,99.90
2024-01-03T19:45:13.840Z,99.90
2024-01-03T19:47:46.529Z,99.90
2024-01-03T19:50:15.637Z,99.90
2024-01-03T19:52:49.593Z,99.90
2024-01-03T19:55:18.208Z,1.00
2024-01-03T19:57:47.054Z,1.00
2024-01-03T20:00:19.668Z,1.00
2024-01-03T20:02:49.273Z,99.90
2024-01-03T20:05:22.041Z,99.90
2024-01-03T20:07:50.677Z,99.90
2024-01-03T20:10:18.912Z,99.90
2024-01-03T20:12:47.501Z,99.90
2024-01-03T20:15:15.846Z,99.90
2024-01-03T20:17:44.373Z,99.90
2024-01-03T20:20:13.255Z,99.90
2024-01-03T20:22:42.313Z,99.90
2024-01-03T20:25:10.855Z,99.90
2024-01-03T20:27:43.336Z,99.90
2024-01-03T20:30:13.229Z,99.90
2024-01-03T20:32:43.395Z,99.90
2024-01-03T20:35:12.525Z,99.90
2024-01-03T20:37:42.173Z,1.00
2024-01-03T20:40:11.249Z,99.90
2024-01-03T20:42:41.283Z,1.00
2024-01-03T20:45:13.046Z,1.00
2024-01-03T20:47:42.302Z,1.00
2024-01-03T20:50:17.677Z,1.00
2024-01-03T20:52:48.788Z,1.00
2024-01-03T20:55:18.496Z,1.00
2024-01-03T21:00:42.770Z,1.00
2024-01-03T21:03:11.290Z,1.00
2024-01-03T21:05:42.234Z,1.00
2024-01-03T21:08:10.575Z,1.00
2024-01-03T21:10:41.576Z,1.00
2024-01-03T21:13:14.475Z,1.00
2024-01-03T21:15:44.860Z,99.90
2024-01-03T21:18:16.797Z,99.90
2024-01-03T21:20:51.042Z,99.90
2024-01-03T21:23:22.604Z,1.00
2024-01-03T21:25:51.211Z,1.00
2024-01-03T21:28:19.624Z,1.00
2024-01-03T21:30:48.050Z,1.00
2024-01-03T21:33:16.987Z,1.00
2024-01-03T21:35:50.034Z,1.00
2024-01-03T21:38:18.733Z,1.00
2024-01-03T21:40:47.168Z,1.00
2024-01-03T21:43:16.464Z,1.00
2024-01-03T21:45:44.903Z,1.00
2024-01-03T21:48:13.466Z,1.00
2024-01-03T21:50:42.112Z,1.00
2024-01-03T21:53:10.340Z,1.00
2024-01-03T21:55:40.351Z,1.00
2024-01-03T21:58:10.611Z,1.00
2024-01-03T22:00:39.270Z,1.00
2024-01-03T22:03:08.161Z,1.00
2024-01-03T22:05:37.014Z,1.00
2024-01-03T22:08:06.581Z,1.00
2024-01-03T22:10:35.167Z,1.00
2024-01-03T22:13:03.598Z,1.00
2024-01-03T22:15:32.234Z,1.00
2024-01-03T22:18:00.956Z,1.00
2024-01-03T22:20:29.389Z,1.00
2024-01-03T22:22:57.966Z,1.00
2024-01-03T22:25:26.574Z,1.00
2024-01-03T22:27:54.986Z,1.00
2024-01-03T22:30:23.822Z,1.00
2024-01-03T22:32:52.331Z,1.00
2024-01-03T22:35:20.835Z,1.00
2024-01-03T22:37:49.242Z,1.00
2024-01-03T22:40:17.718Z,1.00
2024-01-03T22:42:46.036Z,1.00
2024-01-03T22:45:15.093Z,1.00
2024-01-03T22:47:43.511Z,1.00
2024-01-03T22:50:12.039Z,1.00
2024-01-03T22:52:40.452Z,1.00
2024-01-03T22:55:09.385Z,1.00
2024-01-03T22:57:37.797Z,1.00
2024-01-03T23:00:06.927Z,1.00
2024-01-03T23:02:35.201Z,1.00
2024-01-03T23:05:03.637Z,1.00
2024-01-03T23:07:32.526Z,1.00
2024-01-03T23:10:00.977Z,1.00
2024-01-03T23:12:29.402Z,1.00
2024-01-03T23:14:57.886Z,1.00
2024-01-03T23:17:26.404Z,1.00
2024-01-03T23:19:55.192Z,1.00
2024-01-03T23:22:23.752Z,1.00
2024-01-03T23:24:52.220Z,1.00
2024-01-03T23:27:20.394Z,1.00
2024-01-03T23:29:49.130Z,1.00
2024-01-03T23:32:17.398Z,1.00
2024-01-03T23:34:45.826Z,1.00
2024-01-03T23:37:14.153Z,1.00
2024-01-03T23:39:42.541Z,1.00
2024-01-03T23:42:10.771Z,1.50
2024-01-03T23:44:39.616Z,47.50
2024-01-03T23:47:07.968Z,91.60
2024-01-03T23:49:36.586Z,99.90
2024-01-03T23:52:05.454Z,99.90
2024-01-03T23:54:33.880Z,99.90
2024-01-03T23:57:02.239Z,99.90
2024-01-03T23:59:30.923Z,99.90
